Language selection

My Weather Profile Weather Topics  | 

Juan de Fuca Strait - central strait: Past 24 Hour Conditions

 

Sentry Shoal - 46131

04:00 AM PST 08 December 2022Buoy position: 49.92N 125.0W
Disclaimer

This table is a summary of hourly weather conditions for the past 24 hours.
Please note that these observations might not always be representative of weather conditions over their associated marine area.

Date / Time
(PST)
Wind(knots) Wave height(m) Wave period(s) Pressure(kPa) Air tempC) Water tempC)
08 December 2022
4:00 SSW 21 gust 25 2.1 6.7 100.7 7 8
3:00 S 26 gust 37 2.2 6.5 100.7 7 8
2:00 S 32 gust 40 2.2 6.9 100.6 7 8
1:00 S 32 gust 41 2.3 6.9 100.7 7 8
0:00 SSE 29 gust 38 2.0 6.5 100.7 7 8
07 December 2022
23:00 SSE 31 gust 37 2.0 6.7 100.8 7 8
22:00 SSE 30 gust 40 1.9 6.7 100.9 8 8
21:00 S 32 gust 40 2.1 5.7 101.0 7 8
20:00 S 31 gust 38 1.7 6.5 101.0 7 8
19:00 SSE 26 gust 30 1.6 6.3 101.1 7 8
18:00 SSE 25 gust 29 1.5 5.3 101.2 7 8
17:00 SSE 24 gust 32 1.4 5.7 101.3 7 8
16:00 S 26 gust 31 1.3 5.6 101.3 7 8
15:00 SSE 21 gust 28 1.1 4.9 101.4 6 8
14:00 SSE 19 gust 27 0.8 4.9 101.5 6 8
13:00 SSE 18 gust 21 0.6 4.0 101.6 6 8
12:00 SSE 17 gust 19 0.5 3.6 101.7 6 8
11:00 SSE 14 gust 17 0.4 3.7 101.9 6 8
10:00 SSE 15 gust 18 0.4 3.5 101.9 6 8
9:00 SSE 13 gust 16 0.4 3.9 102.0 5 7
8:00 SSE 11 gust 13 0.4 3.9 102.0 6 7
7:00 SSE 12 gust 17 0.4 3.2 102.0 5 7
6:00 SSE 13 gust 16 0.4 3.0 102.0 5 7
5:00 SSE 12 gust 15 0.3 2.9 102.0 5 7
4:00 SSE 13 gust 16 0.3 2.7 102.0 6 8

Zoom-in to make a selection

Map of Pacific - Georgia Basin marine weather areas Sentry Shoal - 46131 Halibut Bank - 46146 La Perouse Bank - 46206 Georgia Strait - 46303 English Bay - 46304 Discovery Island Esquimalt Harbour Kelp Reefs Malahat Race Rocks Lightstation Saturna Island Sheringham Point University of Victoria Victoria Gonzales Victoria Int'l Airport Ballenas Islands Campbell River Airport Comox Airport Entrance Island Fanny Island Nanaimo Airport Sisters Islets Estevan Point Port Alberni Tofino Airport Grief Point Howe Sound - Pam Rocks Powell River Airport Sechelt Squamish Airport Point Atkinson Sand Heads Lightstation Tsawwassen Ferry Terminal Vancouver Int'l Airport Vancouver Harbour West Vancouver
Legend:
buoy Buoy
land station Land Station

Pacific - Georgia Basin Area

Another Region

What we are doing

Date modified: